sensor_id;sensor_type;location;lat;lon;timestamp;temperature;humidity
73777;DHT22;62088;50.240;2.696;2023-04-03T00:01:04;5.50;78.90
73777;DHT22;62088;50.240;2.696;2023-04-03T00:03:31;5.40;78.90
73777;DHT22;62088;50.240;2.696;2023-04-03T00:05:59;5.40;78.80
73777;DHT22;62088;50.240;2.696;2023-04-03T00:08:26;5.30;78.70
73777;DHT22;62088;50.240;2.696;2023-04-03T00:10:53;5.30;78.60
73777;DHT22;62088;50.240;2.696;2023-04-03T00:13:20;5.30;78.60
73777;DHT22;62088;50.240;2.696;2023-04-03T00:15:47;5.20;78.50
73777;DHT22;62088;50.240;2.696;2023-04-03T00:18:14;5.20;78.40
73777;DHT22;62088;50.240;2.696;2023-04-03T00:20:41;5.10;78.40
73777;DHT22;62088;50.240;2.696;2023-04-03T00:23:08;5.10;78.30
73777;DHT22;62088;50.240;2.696;2023-04-03T00:25:36;5.10;78.30
73777;DHT22;62088;50.240;2.696;2023-04-03T00:28:04;5.00;78.20
73777;DHT22;62088;50.240;2.696;2023-04-03T00:30:31;4.90;78.20
73777;DHT22;62088;50.240;2.696;2023-04-03T00:32:59;4.90;78.20
73777;DHT22;62088;50.240;2.696;2023-04-03T00:35:28;4.90;78.20
73777;DHT22;62088;50.240;2.696;2023-04-03T00:37:55;4.90;78.20
73777;DHT22;62088;50.240;2.696;2023-04-03T00:40:24;4.80;78.20
73777;DHT22;62088;50.240;2.696;2023-04-03T00:42:57;4.70;78.10
73777;DHT22;62088;50.240;2.696;2023-04-03T00:47:54;4.70;78.10
73777;DHT22;62088;50.240;2.696;2023-04-03T00:50:22;4.60;78.10
73777;DHT22;62088;50.240;2.696;2023-04-03T00:52:50;4.60;78.00
73777;DHT22;62088;50.240;2.696;2023-04-03T00:55:19;4.60;78.00
73777;DHT22;62088;50.240;2.696;2023-04-03T00:57:48;4.50;78.00
73777;DHT22;62088;50.240;2.696;2023-04-03T01:00:18;4.50;78.00
73777;DHT22;62088;50.240;2.696;2023-04-03T01:02:45;4.50;78.00
73777;DHT22;62088;50.240;2.696;2023-04-03T01:05:15;4.50;78.00
73777;DHT22;62088;50.240;2.696;2023-04-03T01:07:44;4.40;78.00
73777;DHT22;62088;50.240;2.696;2023-04-03T01:10:14;4.40;78.00
73777;DHT22;62088;50.240;2.696;2023-04-03T01:12:44;4.40;78.10
73777;DHT22;62088;50.240;2.696;2023-04-03T01:15:22;4.40;78.00
73777;DHT22;62088;50.240;2.696;2023-04-03T01:17:55;4.40;78.00
73777;DHT22;62088;50.240;2.696;2023-04-03T01:25:40;4.30;78.00
73777;DHT22;62088;50.240;2.696;2023-04-03T01:28:11;4.30;78.00
73777;DHT22;62088;50.240;2.696;2023-04-03T01:33:16;4.20;78.00
73777;DHT22;62088;50.240;2.696;2023-04-03T01:35:45;4.20;78.00
73777;DHT22;62088;50.240;2.696;2023-04-03T01:38:12;4.20;78.00
73777;DHT22;62088;50.240;2.696;2023-04-03T01:40:39;4.20;78.00
73777;DHT22;62088;50.240;2.696;2023-04-03T01:43:06;4.10;78.00
73777;DHT22;62088;50.240;2.696;2023-04-03T01:45:33;4.10;78.10
73777;DHT22;62088;50.240;2.696;2023-04-03T01:48:01;4.10;78.10
73777;DHT22;62088;50.240;2.696;2023-04-03T01:50:28;4.00;78.10
73777;DHT22;62088;50.240;2.696;2023-04-03T01:52:55;4.00;78.00
73777;DHT22;62088;50.240;2.696;2023-04-03T01:55:22;4.00;78.00
73777;DHT22;62088;50.240;2.696;2023-04-03T01:57:49;4.00;78.00
73777;DHT22;62088;50.240;2.696;2023-04-03T02:00:17;4.00;78.00
73777;DHT22;62088;50.240;2.696;2023-04-03T02:02:44;4.00;78.10
73777;DHT22;62088;50.240;2.696;2023-04-03T02:05:11;3.90;78.10
73777;DHT22;62088;50.240;2.696;2023-04-03T02:07:38;3.90;78.10
73777;DHT22;62088;50.240;2.696;2023-04-03T02:10:05;3.90;78.10
73777;DHT22;62088;50.240;2.696;2023-04-03T02:12:33;3.90;78.10
73777;DHT22;62088;50.240;2.696;2023-04-03T02:15:00;3.90;78.10
73777;DHT22;62088;50.240;2.696;2023-04-03T02:17:27;3.90;78.10
73777;DHT22;62088;50.240;2.696;2023-04-03T02:19:54;3.90;78.10
73777;DHT22;62088;50.240;2.696;2023-04-03T02:22:22;3.90;78.10
73777;DHT22;62088;50.240;2.696;2023-04-03T02:24:50;3.80;78.00
73777;DHT22;62088;50.240;2.696;2023-04-03T02:27:19;3.80;78.10
73777;DHT22;62088;50.240;2.696;2023-04-03T02:29:47;3.80;78.10
73777;DHT22;62088;50.240;2.696;2023-04-03T02:32:15;3.80;78.10
73777;DHT22;62088;50.240;2.696;2023-04-03T02:34:43;3.80;78.10
73777;DHT22;62088;50.240;2.696;2023-04-03T02:37:12;3.70;78.10
73777;DHT22;62088;50.240;2.696;2023-04-03T02:39:39;3.70;78.10
73777;DHT22;62088;50.240;2.696;2023-04-03T02:42:06;3.70;78.20
73777;DHT22;62088;50.240;2.696;2023-04-03T02:44:34;3.70;78.20
73777;DHT22;62088;50.240;2.696;2023-04-03T02:47:02;3.70;78.20
73777;DHT22;62088;50.240;2.696;2023-04-03T02:49:29;3.70;78.20
73777;DHT22;62088;50.240;2.696;2023-04-03T02:51:56;3.70;78.20
73777;DHT22;62088;50.240;2.696;2023-04-03T02:54:23;3.60;78.30
73777;DHT22;62088;50.240;2.696;2023-04-03T02:56:57;3.60;78.30
73777;DHT22;62088;50.240;2.696;2023-04-03T02:59:25;3.50;78.40
73777;DHT22;62088;50.240;2.696;2023-04-03T03:01:52;3.50;78.40
73777;DHT22;62088;50.240;2.696;2023-04-03T03:04:19;3.50;78.40
73777;DHT22;62088;50.240;2.696;2023-04-03T03:06:46;3.50;78.50
73777;DHT22;62088;50.240;2.696;2023-04-03T03:09:14;3.50;78.50
73777;DHT22;62088;50.240;2.696;2023-04-03T03:11:42;3.50;78.50
73777;DHT22;62088;50.240;2.696;2023-04-03T03:14:09;3.40;78.50
73777;DHT22;62088;50.240;2.696;2023-04-03T03:16:36;3.40;78.50
73777;DHT22;62088;50.240;2.696;2023-04-03T03:19:03;3.40;78.60
73777;DHT22;62088;50.240;2.696;2023-04-03T03:21:30;3.40;78.70
73777;DHT22;62088;50.240;2.696;2023-04-03T03:23:57;3.40;78.70
73777;DHT22;62088;50.240;2.696;2023-04-03T03:26:25;3.30;78.80
73777;DHT22;62088;50.240;2.696;2023-04-03T03:28:54;3.30;78.90
73777;DHT22;62088;50.240;2.696;2023-04-03T03:31:21;3.30;79.00
73777;DHT22;62088;50.240;2.696;2023-04-03T03:33:48;3.30;79.10
73777;DHT22;62088;50.240;2.696;2023-04-03T03:36:15;3.30;79.10
73777;DHT22;62088;50.240;2.696;2023-04-03T03:38:42;3.30;79.10
73777;DHT22;62088;50.240;2.696;2023-04-03T03:41:10;3.20;79.00
73777;DHT22;62088;50.240;2.696;2023-04-03T03:43:38;3.20;79.00
73777;DHT22;62088;50.240;2.696;2023-04-03T03:46:06;3.20;78.90
73777;DHT22;62088;50.240;2.696;2023-04-03T03:48:33;3.20;78.90
73777;DHT22;62088;50.240;2.696;2023-04-03T03:51:01;3.10;78.90
73777;DHT22;62088;50.240;2.696;2023-04-03T03:53:32;3.10;78.90
73777;DHT22;62088;50.240;2.696;2023-04-03T03:56:04;3.10;79.00
73777;DHT22;62088;50.240;2.696;2023-04-03T03:58:32;3.10;79.00
73777;DHT22;62088;50.240;2.696;2023-04-03T04:01:05;3.00;79.10
73777;DHT22;62088;50.240;2.696;2023-04-03T04:03:37;3.00;79.10
73777;DHT22;62088;50.240;2.696;2023-04-03T04:06:07;3.00;79.10
73777;DHT22;62088;50.240;2.696;2023-04-03T04:08:34;3.00;79.10
73777;DHT22;62088;50.240;2.696;2023-04-03T04:11:01;3.00;79.10
73777;DHT22;62088;50.240;2.696;2023-04-03T04:13:28;2.90;79.10
73777;DHT22;62088;50.240;2.696;2023-04-03T04:15:55;2.90;79.10
73777;DHT22;62088;50.240;2.696;2023-04-03T04:18:22;2.90;79.10
73777;DHT22;62088;50.240;2.696;2023-04-03T04:20:51;2.90;79.10
73777;DHT22;62088;50.240;2.696;2023-04-03T04:23:18;2.80;79.10
73777;DHT22;62088;50.240;2.696;2023-04-03T04:25:48;2.80;79.20
73777;DHT22;62088;50.240;2.696;2023-04-03T04:28:16;2.80;79.20
73777;DHT22;62088;50.240;2.696;2023-04-03T04:30:44;2.70;79.30
73777;DHT22;62088;50.240;2.696;2023-04-03T04:33:12;2.70;79.30
73777;DHT22;62088;50.240;2.696;2023-04-03T04:35:42;2.70;79.40
73777;DHT22;62088;50.240;2.696;2023-04-03T04:38:11;2.70;79.40
73777;DHT22;62088;50.240;2.696;2023-04-03T04:40:38;2.60;79.50
73777;DHT22;62088;50.240;2.696;2023-04-03T04:43:06;2.60;79.60
73777;DHT22;62088;50.240;2.696;2023-04-03T04:45:34;2.60;79.70
73777;DHT22;62088;50.240;2.696;2023-04-03T04:48:02;2.60;79.80
73777;DHT22;62088;50.240;2.696;2023-04-03T04:50:30;2.60;79.80
73777;DHT22;62088;50.240;2.696;2023-04-03T04:52:57;2.60;79.90
73777;DHT22;62088;50.240;2.696;2023-04-03T04:55:24;2.60;80.00
73777;DHT22;62088;50.240;2.696;2023-04-03T04:57:51;2.60;80.10
73777;DHT22;62088;50.240;2.696;2023-04-03T05:00:20;2.60;80.10
73777;DHT22;62088;50.240;2.696;2023-04-03T05:02:47;2.60;80.10
73777;DHT22;62088;50.240;2.696;2023-04-03T05:05:15;2.70;80.20
73777;DHT22;62088;50.240;2.696;2023-04-03T05:07:42;2.60;80.20
73777;DHT22;62088;50.240;2.696;2023-04-03T05:10:09;2.60;80.10
73777;DHT22;62088;50.240;2.696;2023-04-03T05:12:37;2.60;80.10
73777;DHT22;62088;50.240;2.696;2023-04-03T05:15:05;2.70;80.10
73777;DHT22;62088;50.240;2.696;2023-04-03T05:17:32;2.70;80.00
73777;DHT22;62088;50.240;2.696;2023-04-03T05:20:01;2.70;80.00
73777;DHT22;62088;50.240;2.696;2023-04-03T05:22:30;2.60;79.90
73777;DHT22;62088;50.240;2.696;2023-04-03T05:25:04;2.60;79.90
73777;DHT22;62088;50.240;2.696;2023-04-03T05:27:31;2.60;79.80
73777;DHT22;62088;50.240;2.696;2023-04-03T05:29:59;2.60;79.80
73777;DHT22;62088;50.240;2.696;2023-04-03T05:32:27;2.60;79.80
73777;DHT22;62088;50.240;2.696;2023-04-03T05:35:20;2.60;79.80
73777;DHT22;62088;50.240;2.696;2023-04-03T05:37:51;2.60;79.80
73777;DHT22;62088;50.240;2.696;2023-04-03T05:40:18;2.60;79.70
73777;DHT22;62088;50.240;2.696;2023-04-03T05:42:49;2.60;79.70
73777;DHT22;62088;50.240;2.696;2023-04-03T05:45:18;2.60;79.70
73777;DHT22;62088;50.240;2.696;2023-04-03T05:47:45;2.60;79.70
73777;DHT22;62088;50.240;2.696;2023-04-03T05:50:13;2.60;79.70
73777;DHT22;62088;50.240;2.696;2023-04-03T05:52:44;2.60;79.70
73777;DHT22;62088;50.240;2.696;2023-04-03T05:55:13;2.60;79.70
73777;DHT22;62088;50.240;2.696;2023-04-03T05:57:40;2.60;79.70
73777;DHT22;62088;50.240;2.696;2023-04-03T06:00:11;2.60;79.70
73777;DHT22;62088;50.240;2.696;2023-04-03T06:02:47;2.60;79.70
73777;DHT22;62088;50.240;2.696;2023-04-03T06:05:19;2.60;79.80
73777;DHT22;62088;50.240;2.696;2023-04-03T06:07:46;2.60;79.80
73777;DHT22;62088;50.240;2.696;2023-04-03T06:10:16;2.60;79.80
73777;DHT22;62088;50.240;2.696;2023-04-03T06:12:44;2.60;79.90
73777;DHT22;62088;50.240;2.696;2023-04-03T06:15:11;2.60;79.90
73777;DHT22;62088;50.240;2.696;2023-04-03T06:17:40;2.60;79.90
73777;DHT22;62088;50.240;2.696;2023-04-03T06:20:07;2.60;80.00
73777;DHT22;62088;50.240;2.696;2023-04-03T06:22:36;2.60;80.10
73777;DHT22;62088;50.240;2.696;2023-04-03T06:25:04;2.60;80.10
73777;DHT22;62088;50.240;2.696;2023-04-03T06:27:31;2.60;80.10
73777;DHT22;62088;50.240;2.696;2023-04-03T06:29:58;2.60;80.10
73777;DHT22;62088;50.240;2.696;2023-04-03T06:32:26;2.70;80.20
73777;DHT22;62088;50.240;2.696;2023-04-03T06:34:53;2.70;80.20
73777;DHT22;62088;50.240;2.696;2023-04-03T06:37:22;2.70;80.30
73777;DHT22;62088;50.240;2.696;2023-04-03T06:39:52;2.70;80.30
73777;DHT22;62088;50.240;2.696;2023-04-03T06:42:19;2.70;80.40
73777;DHT22;62088;50.240;2.696;2023-04-03T06:44:54;2.80;80.40
73777;DHT22;62088;50.240;2.696;2023-04-03T06:47:21;2.80;80.50
73777;DHT22;62088;50.240;2.696;2023-04-03T06:49:48;2.80;80.50
73777;DHT22;62088;50.240;2.696;2023-04-03T06:52:15;2.90;80.50
73777;DHT22;62088;50.240;2.696;2023-04-03T06:54:42;2.90;80.50
73777;DHT22;62088;50.240;2.696;2023-04-03T06:57:09;3.00;80.40
73777;DHT22;62088;50.240;2.696;2023-04-03T06:59:36;3.00;80.30
73777;DHT22;62088;50.240;2.696;2023-04-03T07:02:03;3.00;80.20
73777;DHT22;62088;50.240;2.696;2023-04-03T07:04:31;3.10;80.00
73777;DHT22;62088;50.240;2.696;2023-04-03T07:06:58;3.10;79.90
73777;DHT22;62088;50.240;2.696;2023-04-03T07:09:25;3.20;79.90
73777;DHT22;62088;50.240;2.696;2023-04-03T07:11:52;3.20;80.00
73777;DHT22;62088;50.240;2.696;2023-04-03T07:14:20;3.20;80.00
73777;DHT22;62088;50.240;2.696;2023-04-03T07:16:48;3.30;79.90
73777;DHT22;62088;50.240;2.696;2023-04-03T07:19:15;3.30;79.70
73777;DHT22;62088;50.240;2.696;2023-04-03T07:21:42;3.40;79.40
73777;DHT22;62088;50.240;2.696;2023-04-03T07:24:10;3.40;79.40
73777;DHT22;62088;50.240;2.696;2023-04-03T07:26:42;3.40;79.40
73777;DHT22;62088;50.240;2.696;2023-04-03T07:29:09;3.50;79.50
73777;DHT22;62088;50.240;2.696;2023-04-03T07:31:36;3.60;79.10
73777;DHT22;62088;50.240;2.696;2023-04-03T07:34:05;3.60;79.20
73777;DHT22;62088;50.240;2.696;2023-04-03T07:36:32;3.60;79.00
73777;DHT22;62088;50.240;2.696;2023-04-03T07:39:00;3.70;78.80
73777;DHT22;62088;50.240;2.696;2023-04-03T07:41:27;3.80;78.80
73777;DHT22;62088;50.240;2.696;2023-04-03T07:43:55;3.80;79.00
73777;DHT22;62088;50.240;2.696;2023-04-03T07:46:23;3.90;78.70
73777;DHT22;62088;50.240;2.696;2023-04-03T07:48:50;3.90;78.70
73777;DHT22;62088;50.240;2.696;2023-04-03T07:51:17;4.00;78.00
73777;DHT22;62088;50.240;2.696;2023-04-03T07:53:44;4.10;77.90
73777;DHT22;62088;50.240;2.696;2023-04-03T07:56:14;4.10;78.00
73777;DHT22;62088;50.240;2.696;2023-04-03T07:58:41;4.20;78.10
73777;DHT22;62088;50.240;2.696;2023-04-03T08:01:09;4.30;77.90
73777;DHT22;62088;50.240;2.696;2023-04-03T08:03:36;4.30;78.00
73777;DHT22;62088;50.240;2.696;2023-04-03T08:06:06;4.40;78.10
73777;DHT22;62088;50.240;2.696;2023-04-03T08:08:41;4.50;77.00
73777;DHT22;62088;50.240;2.696;2023-04-03T08:11:10;4.60;77.00
73777;DHT22;62088;50.240;2.696;2023-04-03T08:13:38;4.60;77.20
73777;DHT22;62088;50.240;2.696;2023-04-03T08:16:14;4.70;76.30
73777;DHT22;62088;50.240;2.696;2023-04-03T08:18:43;4.80;76.50
73777;DHT22;62088;50.240;2.696;2023-04-03T08:21:11;4.90;76.10
73777;DHT22;62088;50.240;2.696;2023-04-03T08:23:39;4.90;75.50
73777;DHT22;62088;50.240;2.696;2023-04-03T08:26:13;5.00;75.50
73777;DHT22;62088;50.240;2.696;2023-04-03T08:28:40;5.10;75.10
73777;DHT22;62088;50.240;2.696;2023-04-03T08:31:14;5.20;75.40
73777;DHT22;62088;50.240;2.696;2023-04-03T08:33:42;5.30;75.90
73777;DHT22;62088;50.240;2.696;2023-04-03T08:38:45;5.50;75.10
73777;DHT22;62088;50.240;2.696;2023-04-03T08:41:25;5.50;74.90
73777;DHT22;62088;50.240;2.696;2023-04-03T08:49:33;5.90;74.50
73777;DHT22;62088;50.240;2.696;2023-04-03T08:52:08;5.90;72.80
73777;DHT22;62088;50.240;2.696;2023-04-03T08:54:53;6.00;72.90
73777;DHT22;62088;50.240;2.696;2023-04-03T08:57:41;6.10;72.10
73777;DHT22;62088;50.240;2.696;2023-04-03T09:00:22;6.20;72.60
73777;DHT22;62088;50.240;2.696;2023-04-03T09:02:52;6.30;72.80
73777;DHT22;62088;50.240;2.696;2023-04-03T09:08:26;6.50;71.40
73777;DHT22;62088;50.240;2.696;2023-04-03T09:11:16;6.60;71.50
73777;DHT22;62088;50.240;2.696;2023-04-03T09:16:48;6.80;71.30
73777;DHT22;62088;50.240;2.696;2023-04-03T09:22:18;7.00;68.80
73777;DHT22;62088;50.240;2.696;2023-04-03T09:25:06;7.00;68.00
73777;DHT22;62088;50.240;2.696;2023-04-03T09:27:37;7.20;68.20
73777;DHT22;62088;50.240;2.696;2023-04-03T09:30:04;7.30;68.10
73777;DHT22;62088;50.240;2.696;2023-04-03T09:32:34;7.40;68.70
73777;DHT22;62088;50.240;2.696;2023-04-03T09:35:04;7.40;67.50
73777;DHT22;62088;50.240;2.696;2023-04-03T09:37:48;7.50;67.50
73777;DHT22;62088;50.240;2.696;2023-04-03T09:40:34;7.60;66.50
73777;DHT22;62088;50.240;2.696;2023-04-03T09:45:48;7.80;65.40
73777;DHT22;62088;50.240;2.696;2023-04-03T09:48:19;7.90;65.40
73777;DHT22;62088;50.240;2.696;2023-04-03T09:50:57;7.90;65.10
73777;DHT22;62088;50.240;2.696;2023-04-03T09:56:00;8.10;64.30
73777;DHT22;62088;50.240;2.696;2023-04-03T09:58:40;8.20;62.80
73777;DHT22;62088;50.240;2.696;2023-04-03T10:04:09;8.40;63.90
73777;DHT22;62088;50.240;2.696;2023-04-03T10:06:45;8.40;61.60
73777;DHT22;62088;50.240;2.696;2023-04-03T10:09:26;8.50;60.20
73777;DHT22;62088;50.240;2.696;2023-04-03T10:12:07;8.60;60.00
73777;DHT22;62088;50.240;2.696;2023-04-03T10:14:39;8.70;60.40
73777;DHT22;62088;50.240;2.696;2023-04-03T10:19:59;8.90;61.00
73777;DHT22;62088;50.240;2.696;2023-04-03T10:25:04;9.10;60.10
73777;DHT22;62088;50.240;2.696;2023-04-03T10:30:29;9.20;60.20
73777;DHT22;62088;50.240;2.696;2023-04-03T10:35:44;9.40;59.40
73777;DHT22;62088;50.240;2.696;2023-04-03T10:47:40;9.60;58.90
73777;DHT22;62088;50.240;2.696;2023-04-03T10:55:46;9.80;57.80
73777;DHT22;62088;50.240;2.696;2023-04-03T10:58:43;9.80;56.90
73777;DHT22;62088;50.240;2.696;2023-04-03T11:01:16;9.80;56.20
73777;DHT22;62088;50.240;2.696;2023-04-03T11:03:49;9.80;57.00
73777;DHT22;62088;50.240;2.696;2023-04-03T11:06:19;9.90;58.00
73777;DHT22;62088;50.240;2.696;2023-04-03T11:08:56;9.90;58.80
73777;DHT22;62088;50.240;2.696;2023-04-03T11:11:27;9.90;57.60
73777;DHT22;62088;50.240;2.696;2023-04-03T11:17:01;10.00;57.30
73777;DHT22;62088;50.240;2.696;2023-04-03T11:22:28;10.20;56.80
73777;DHT22;62088;50.240;2.696;2023-04-03T11:25:04;10.30;55.40
73777;DHT22;62088;50.240;2.696;2023-04-03T11:28:06;10.30;54.20
73777;DHT22;62088;50.240;2.696;2023-04-03T11:33:40;10.30;56.00
73777;DHT22;62088;50.240;2.696;2023-04-03T11:38:54;10.30;55.40
73777;DHT22;62088;50.240;2.696;2023-04-03T11:41:31;10.30;55.70
73777;DHT22;62088;50.240;2.696;2023-04-03T11:44:27;10.40;55.40
73777;DHT22;62088;50.240;2.696;2023-04-03T11:46:55;10.40;54.50
73777;DHT22;62088;50.240;2.696;2023-04-03T11:49:51;10.40;53.90
73777;DHT22;62088;50.240;2.696;2023-04-03T11:52:56;10.40;54.10
73777;DHT22;62088;50.240;2.696;2023-04-03T12:08:46;10.70;54.50
73777;DHT22;62088;50.240;2.696;2023-04-03T12:11:14;10.80;54.20
73777;DHT22;62088;50.240;2.696;2023-04-03T12:16:22;10.90;54.50
73777;DHT22;62088;50.240;2.696;2023-04-03T12:24:04;11.20;53.90
73777;DHT22;62088;50.240;2.696;2023-04-03T12:46:13;11.60;54.30
73777;DHT22;62088;50.240;2.696;2023-04-03T12:48:52;11.60;51.40
73777;DHT22;62088;50.240;2.696;2023-04-03T12:51:39;11.70;51.50
73777;DHT22;62088;50.240;2.696;2023-04-03T12:54:27;11.70;52.60
73777;DHT22;62088;50.240;2.696;2023-04-03T12:57:10;11.80;53.90
73777;DHT22;62088;50.240;2.696;2023-04-03T12:59:37;11.90;50.80
73777;DHT22;62088;50.240;2.696;2023-04-03T13:02:23;11.80;50.30
73777;DHT22;62088;50.240;2.696;2023-04-03T13:04:52;11.90;51.20
73777;DHT22;62088;50.240;2.696;2023-04-03T13:07:30;11.90;51.90
73777;DHT22;62088;50.240;2.696;2023-04-03T13:10:02;11.90;50.70
73777;DHT22;62088;50.240;2.696;2023-04-03T13:12:29;11.90;51.60
73777;DHT22;62088;50.240;2.696;2023-04-03T13:15:01;11.90;51.40
73777;DHT22;62088;50.240;2.696;2023-04-03T13:17:31;11.90;52.10
73777;DHT22;62088;50.240;2.696;2023-04-03T13:20:12;12.00;51.80
73777;DHT22;62088;50.240;2.696;2023-04-03T13:25:20;12.10;51.40
73777;DHT22;62088;50.240;2.696;2023-04-03T13:27:48;12.20;50.30
73777;DHT22;62088;50.240;2.696;2023-04-03T13:32:55;12.30;51.70
73777;DHT22;62088;50.240;2.696;2023-04-03T13:35:36;12.30;50.60
73777;DHT22;62088;50.240;2.696;2023-04-03T13:38:21;12.30;49.70
73777;DHT22;62088;50.240;2.696;2023-04-03T13:40:55;12.30;49.40
73777;DHT22;62088;50.240;2.696;2023-04-03T13:43:28;12.40;51.20
73777;DHT22;62088;50.240;2.696;2023-04-03T13:46:01;12.40;52.00
73777;DHT22;62088;50.240;2.696;2023-04-03T13:48:44;12.40;51.90
73777;DHT22;62088;50.240;2.696;2023-04-03T13:53:59;12.50;50.20
73777;DHT22;62088;50.240;2.696;2023-04-03T13:59:23;12.60;50.40
73777;DHT22;62088;50.240;2.696;2023-04-03T14:04:44;12.70;49.10
73777;DHT22;62088;50.240;2.696;2023-04-03T14:07:14;12.80;50.30
73777;DHT22;62088;50.240;2.696;2023-04-03T14:09:42;12.80;51.10
73777;DHT22;62088;50.240;2.696;2023-04-03T14:12:16;12.80;50.70
73777;DHT22;62088;50.240;2.696;2023-04-03T14:14:57;12.90;49.90
73777;DHT22;62088;50.240;2.696;2023-04-03T14:17:25;12.90;50.40
73777;DHT22;62088;50.240;2.696;2023-04-03T14:19:54;12.90;49.10
73777;DHT22;62088;50.240;2.696;2023-04-03T14:22:31;13.00;48.90
73777;DHT22;62088;50.240;2.696;2023-04-03T14:24:59;12.90;49.80
73777;DHT22;62088;50.240;2.696;2023-04-03T14:27:29;12.90;50.10
73777;DHT22;62088;50.240;2.696;2023-04-03T14:29:58;13.00;48.40
73777;DHT22;62088;50.240;2.696;2023-04-03T14:32:26;12.90;46.80
73777;DHT22;62088;50.240;2.696;2023-04-03T14:34:53;13.00;47.30
73777;DHT22;62088;50.240;2.696;2023-04-03T14:37:23;12.90;47.00
73777;DHT22;62088;50.240;2.696;2023-04-03T14:39:52;12.90;47.90
73777;DHT22;62088;50.240;2.696;2023-04-03T14:42:23;13.00;49.20
73777;DHT22;62088;50.240;2.696;2023-04-03T14:44:51;12.90;47.90
73777;DHT22;62088;50.240;2.696;2023-04-03T14:47:25;13.00;48.70
73777;DHT22;62088;50.240;2.696;2023-04-03T14:50:02;13.00;48.40
73777;DHT22;62088;50.240;2.696;2023-04-03T14:52:33;13.00;49.20
73777;DHT22;62088;50.240;2.696;2023-04-03T14:55:02;13.00;48.30
73777;DHT22;62088;50.240;2.696;2023-04-03T14:57:29;13.00;47.80
73777;DHT22;62088;50.240;2.696;2023-04-03T14:59:58;12.90;47.30
73777;DHT22;62088;50.240;2.696;2023-04-03T15:04:56;12.90;48.40
73777;DHT22;62088;50.240;2.696;2023-04-03T15:07:26;12.90;47.40
73777;DHT22;62088;50.240;2.696;2023-04-03T15:09:53;12.90;47.60
73777;DHT22;62088;50.240;2.696;2023-04-03T15:12:24;12.90;48.10
73777;DHT22;62088;50.240;2.696;2023-04-03T15:14:51;12.90;48.20
73777;DHT22;62088;50.240;2.696;2023-04-03T15:17:28;12.90;48.10
73777;DHT22;62088;50.240;2.696;2023-04-03T15:19:55;12.90;48.00
73777;DHT22;62088;50.240;2.696;2023-04-03T15:22:22;12.90;47.70
73777;DHT22;62088;50.240;2.696;2023-04-03T15:24:49;12.90;48.20
73777;DHT22;62088;50.240;2.696;2023-04-03T15:27:17;12.90;48.70
73777;DHT22;62088;50.240;2.696;2023-04-03T15:29:44;12.90;48.80
73777;DHT22;62088;50.240;2.696;2023-04-03T15:32:12;13.00;49.20
73777;DHT22;62088;50.240;2.696;2023-04-03T15:34:39;13.00;47.70
73777;DHT22;62088;50.240;2.696;2023-04-03T15:37:07;13.00;46.80
73777;DHT22;62088;50.240;2.696;2023-04-03T15:39:34;13.00;47.10
73777;DHT22;62088;50.240;2.696;2023-04-03T15:42:01;12.90;46.50
73777;DHT22;62088;50.240;2.696;2023-04-03T15:44:34;12.90;45.40
73777;DHT22;62088;50.240;2.696;2023-04-03T15:47:01;12.90;46.30
73777;DHT22;62088;50.240;2.696;2023-04-03T15:49:29;12.80;46.50
73777;DHT22;62088;50.240;2.696;2023-04-03T15:51:57;12.70;45.80
73777;DHT22;62088;50.240;2.696;2023-04-03T15:54:24;12.60;45.80
73777;DHT22;62088;50.240;2.696;2023-04-03T15:56:52;12.60;46.00
73777;DHT22;62088;50.240;2.696;2023-04-03T15:59:20;12.50;46.10
73777;DHT22;62088;50.240;2.696;2023-04-03T16:01:48;12.50;46.20
73777;DHT22;62088;50.240;2.696;2023-04-03T16:04:17;12.40;46.60
73777;DHT22;62088;50.240;2.696;2023-04-03T16:06:46;12.40;46.40
73777;DHT22;62088;50.240;2.696;2023-04-03T16:09:13;12.40;45.60
73777;DHT22;62088;50.240;2.696;2023-04-03T16:11:40;12.40;46.10
73777;DHT22;62088;50.240;2.696;2023-04-03T16:14:07;12.40;46.50
73777;DHT22;62088;50.240;2.696;2023-04-03T16:16:35;12.40;47.40
73777;DHT22;62088;50.240;2.696;2023-04-03T16:19:03;12.30;45.80
73777;DHT22;62088;50.240;2.696;2023-04-03T16:21:31;12.20;46.10
73777;DHT22;62088;50.240;2.696;2023-04-03T16:23:58;12.20;46.30
73777;DHT22;62088;50.240;2.696;2023-04-03T16:26:26;12.10;45.40
73777;DHT22;62088;50.240;2.696;2023-04-03T16:28:53;12.00;44.90
73777;DHT22;62088;50.240;2.696;2023-04-03T16:31:22;12.00;45.40
73777;DHT22;62088;50.240;2.696;2023-04-03T16:33:50;11.90;45.70
73777;DHT22;62088;50.240;2.696;2023-04-03T16:36:18;11.90;46.70
73777;DHT22;62088;50.240;2.696;2023-04-03T16:38:45;11.90;47.60
73777;DHT22;62088;50.240;2.696;2023-04-03T16:41:12;11.90;47.90
73777;DHT22;62088;50.240;2.696;2023-04-03T16:43:39;11.90;47.80
73777;DHT22;62088;50.240;2.696;2023-04-03T16:46:11;11.80;47.10
73777;DHT22;62088;50.240;2.696;2023-04-03T16:48:38;11.70;46.80
73777;DHT22;62088;50.240;2.696;2023-04-03T16:51:05;11.70;47.10
73777;DHT22;62088;50.240;2.696;2023-04-03T16:53:32;11.70;47.20
73777;DHT22;62088;50.240;2.696;2023-04-03T16:55:59;11.60;47.30
73777;DHT22;62088;50.240;2.696;2023-04-03T16:58:26;11.60;48.00
73777;DHT22;62088;50.240;2.696;2023-04-03T17:00:53;11.50;48.50
73777;DHT22;62088;50.240;2.696;2023-04-03T17:03:22;11.50;48.60
73777;DHT22;62088;50.240;2.696;2023-04-03T17:05:52;11.40;48.20
73777;DHT22;62088;50.240;2.696;2023-04-03T17:08:19;11.40;49.20
73777;DHT22;62088;50.240;2.696;2023-04-03T17:10:46;11.20;48.30
73777;DHT22;62088;50.240;2.696;2023-04-03T17:13:16;11.20;48.30
73777;DHT22;62088;50.240;2.696;2023-04-03T17:15:43;11.10;48.90
73777;DHT22;62088;50.240;2.696;2023-04-03T17:18:10;10.90;49.40
73777;DHT22;62088;50.240;2.696;2023-04-03T17:20:37;10.90;50.00
73777;DHT22;62088;50.240;2.696;2023-04-03T17:23:05;10.90;49.80
73777;DHT22;62088;50.240;2.696;2023-04-03T17:25:32;10.70;48.20
73777;DHT22;62088;50.240;2.696;2023-04-03T17:27:59;10.70;48.00
73777;DHT22;62088;50.240;2.696;2023-04-03T17:30:26;10.50;48.30
73777;DHT22;62088;50.240;2.696;2023-04-03T17:32:53;10.40;47.50
73777;DHT22;62088;50.240;2.696;2023-04-03T17:35:21;10.40;47.40
73777;DHT22;62088;50.240;2.696;2023-04-03T17:37:48;10.30;46.90
73777;DHT22;62088;50.240;2.696;2023-04-03T17:40:19;10.20;47.30
73777;DHT22;62088;50.240;2.696;2023-04-03T17:42:46;10.10;47.10
73777;DHT22;62088;50.240;2.696;2023-04-03T17:45:13;10.00;47.50
73777;DHT22;62088;50.240;2.696;2023-04-03T17:47:40;10.00;47.70
73777;DHT22;62088;50.240;2.696;2023-04-03T17:50:07;9.90;47.70
73777;DHT22;62088;50.240;2.696;2023-04-03T17:52:34;9.90;48.00
73777;DHT22;62088;50.240;2.696;2023-04-03T17:55:02;9.80;48.10
73777;DHT22;62088;50.240;2.696;2023-04-03T17:57:29;9.70;47.60
73777;DHT22;62088;50.240;2.696;2023-04-03T17:59:57;9.70;47.50
73777;DHT22;62088;50.240;2.696;2023-04-03T18:02:24;9.60;47.60
73777;DHT22;62088;50.240;2.696;2023-04-03T18:04:52;9.60;48.10
73777;DHT22;62088;50.240;2.696;2023-04-03T18:07:19;9.60;48.30